Time;durP1;ratioP1;P1;durP2;ratioP2;P2;SDS_P1;SDS_P2;PMS_P1;PMS_P2;Temp;Humidity;BMP_temperature;BMP_pressure;BME280_temperature;BME280_humidity;BME280_pressure;Samples;Min_cycle;Max_cycle;Signal;HPM_P1;HPM_P2
2023/03/04 00:00:29;;;;;;;9.48;1.95;;;9.00;60.30;;;;;;5093152;28;20137;-62
2023/03/04 00:02:54;;;;;;;11.55;1.95;;;9.00;60.30;;;;;;5096383;28;20143;-62
2023/03/04 00:05:20;;;;;;;12.98;2.70;;;9.10;60.40;;;;;;5083167;28;20465;-62
2023/03/04 00:07:46;;;;;;;11.00;2.35;;;9.00;60.40;;;;;;5095832;28;20448;-62
2023/03/04 00:10:12;;;;;;;12.40;2.90;;;9.00;60.40;;;;;;5093751;28;20024;-62
2023/03/04 00:12:37;;;;;;;11.60;2.45;;;9.00;60.40;;;;;;5095226;28;20096;-62
2023/03/04 00:15:03;;;;;;;9.52;2.17;;;9.00;60.50;;;;;;5091444;28;20530;-62
2023/03/04 00:17:30;;;;;;;15.95;2.17;;;9.00;60.50;;;;;;5101850;28;20034;-62
2023/03/04 00:19:56;;;;;;;10.65;2.00;;;9.10;60.60;;;;;;5104429;28;20041;-62
2023/03/04 00:22:22;;;;;;;11.00;2.67;;;9.00;60.60;;;;;;5092133;28;20077;-62
2023/03/04 00:24:48;;;;;;;10.48;2.22;;;9.00;60.60;;;;;;5089866;28;20028;-62
2023/03/04 00:27:14;;;;;;;12.82;2.65;;;9.00;60.50;;;;;;5095611;28;20490;-62
2023/03/04 00:29:40;;;;;;;12.63;2.38;;;9.00;60.50;;;;;;5096147;28;20056;-62
2023/03/04 00:32:06;;;;;;;12.25;2.53;;;9.00;60.60;;;;;;5097230;28;20380;-62
2023/03/04 00:34:31;;;;;;;9.07;2.20;;;9.00;60.60;;;;;;5099145;28;20042;-62
2023/03/04 00:37:00;;;;;;;10.57;2.00;;;9.00;60.60;;;;;;5093911;28;20032;-62
2023/03/04 00:39:27;;;;;;;7.93;2.40;;;9.00;60.60;;;;;;5107514;28;20309;-62
2023/03/04 00:41:53;;;;;;;8.15;1.98;;;9.00;60.70;;;;;;5094531;28;20028;-62
2023/03/04 00:44:19;;;;;;;11.95;2.80;;;9.00;60.70;;;;;;5088603;28;20031;-62
2023/03/04 00:46:45;;;;;;;11.18;2.05;;;9.00;60.70;;;;;;5091465;28;20407;-62
2023/03/04 00:49:10;;;;;;;10.52;2.33;;;9.00;60.70;;;;;;5102966;28;20043;-62
2023/03/04 00:51:36;;;;;;;8.43;2.25;;;9.00;60.70;;;;;;5093259;28;20408;-62
2023/03/04 00:54:02;;;;;;;7.90;2.15;;;9.00;60.70;;;;;;5101412;28;20020;-62
2023/03/04 00:56:28;;;;;;;10.23;2.60;;;9.00;60.70;;;;;;5094978;28;20073;-62
2023/03/04 00:58:54;;;;;;;10.48;2.13;;;9.00;60.80;;;;;;5105515;28;20036;-62
2023/03/04 01:01:20;;;;;;;10.60;2.22;;;9.00;60.90;;;;;;5097471;28;20092;-62
2023/03/04 01:03:46;;;;;;;10.07;2.72;;;9.00;60.90;;;;;;5103969;28;20061;-62
2023/03/04 01:06:12;;;;;;;10.50;2.53;;;9.00;61.00;;;;;;5096082;28;20073;-62
2023/03/04 01:08:38;;;;;;;9.18;2.13;;;8.90;61.00;;;;;;5104306;28;20031;-62
2023/03/04 01:11:05;;;;;;;8.80;2.67;;;8.90;61.00;;;;;;5096968;28;20016;-62
2023/03/04 01:13:30;;;;;;;11.77;2.03;;;8.90;61.10;;;;;;5101624;28;20123;-62
2023/03/04 01:15:56;;;;;;;6.45;1.70;;;8.90;61.20;;;;;;5101482;28;20520;-62
2023/03/04 01:18:22;;;;;;;10.45;2.05;;;8.90;61.20;;;;;;5095327;28;20392;-62
2023/03/04 01:20:48;;;;;;;9.85;2.13;;;8.90;61.20;;;;;;5096904;28;20034;-62
2023/03/04 01:23:14;;;;;;;11.95;2.45;;;8.90;61.30;;;;;;5096548;28;20419;-62
2023/03/04 01:25:41;;;;;;;8.77;2.08;;;8.90;61.30;;;;;;5098427;28;20032;-62
2023/03/04 01:28:06;;;;;;;10.40;2.05;;;8.90;61.40;;;;;;5094555;28;20441;-62
2023/03/04 01:30:33;;;;;;;9.70;2.10;;;9.00;61.40;;;;;;5094532;28;20027;-62
2023/03/04 01:32:59;;;;;;;7.38;1.80;;;9.00;61.50;;;;;;5095581;28;20020;-62
2023/03/04 01:35:24;;;;;;;7.90;1.45;;;8.90;61.50;;;;;;5095674;28;20077;-62
2023/03/04 01:37:50;;;;;;;8.35;2.03;;;8.90;61.50;;;;;;5095049;28;20061;-62
2023/03/04 01:40:16;;;;;;;8.20;1.70;;;8.90;61.50;;;;;;5095608;28;20114;-62
2023/03/04 01:42:43;;;;;;;9.77;2.03;;;8.90;61.60;;;;;;5095564;28;20074;-62
2023/03/04 01:45:13;;;;;;;9.27;2.22;;;8.90;61.60;;;;;;5098131;28;20453;-62
2023/03/04 01:47:39;;;;;;;8.88;2.10;;;8.90;61.70;;;;;;5090518;28;20020;-62
2023/03/04 01:50:16;;;;;;;8.38;2.08;;;8.90;61.70;;;;;;5105903;28;20096;-62
2023/03/04 01:52:42;;;;;;;4.90;1.45;;;8.90;61.70;;;;;;5095240;28;20064;-62
2023/03/04 01:55:23;;;;;;;12.65;1.85;;;8.90;61.60;;;;;;5095915;28;20097;-62
2023/03/04 01:57:51;;;;;;;10.95;1.60;;;8.90;61.60;;;;;;5095341;28;20096;-62
2023/03/04 02:00:22;;;;;;;8.25;1.98;;;8.90;61.70;;;;;;5094144;28;20038;-62
2023/03/04 02:03:01;;;;;;;8.77;1.70;;;8.90;61.70;;;;;;5094500;28;20074;-62
2023/03/04 02:05:27;;;;;;;6.10;1.73;;;8.90;61.80;;;;;;5094606;28;20047;-62
2023/03/04 02:07:55;;;;;;;9.95;1.98;;;8.90;61.80;;;;;;5093103;28;20458;-62
2023/03/04 02:10:21;;;;;;;11.10;2.00;;;8.90;61.80;;;;;;5089460;28;20348;-62
2023/03/04 02:12:47;;;;;;;10.50;2.45;;;8.90;61.90;;;;;;5094684;28;20028;-62
2023/03/04 02:15:13;;;;;;;9.82;2.65;;;8.90;61.90;;;;;;5094046;28;20020;-62
2023/03/04 02:17:39;;;;;;;11.52;1.95;;;8.90;61.90;;;;;;5081487;28;20029;-62
2023/03/04 02:20:28;;;;;;;8.25;1.80;;;8.90;61.90;;;;;;5088914;28;20039;-61
2023/03/04 02:23:00;;;;;;;8.88;1.67;;;8.90;61.90;;;;;;5115620;27;20070;-62
2023/03/04 02:25:34;;;;;;;;;;;8.90;61.90;;;;;;5095133;28;20027;-61
2023/03/04 02:28:00;;;;;;;7.93;1.63;;;8.90;61.90;;;;;;5095503;28;19973;-62
2023/03/04 02:30:26;;;;;;;6.07;1.80;;;8.80;61.80;;;;;;5093744;28;20056;-62
2023/03/04 02:32:53;;;;;;;7.72;1.80;;;8.80;61.70;;;;;;5095024;28;20032;-62
2023/03/04 02:35:20;;;;;;;8.98;2.25;;;8.80;61.70;;;;;;5087366;28;20024;-62
2023/03/04 02:37:46;;;;;;;9.68;1.77;;;8.90;61.70;;;;;;5094436;28;20024;-62
2023/03/04 02:40:33;;;;;;;8.00;1.85;;;8.80;61.60;;;;;;5089712;28;20498;-62
2023/03/04 02:43:00;;;;;;;6.93;1.33;;;8.90;61.70;;;;;;5088350;28;20193;-62
2023/03/04 02:45:36;;;;;;;11.68;2.17;;;8.80;61.70;;;;;;5103601;28;20020;-62
2023/03/04 02:48:05;;;;;;;7.38;1.60;;;8.90;61.70;;;;;;5094372;28;20487;-62
2023/03/04 02:50:39;;;;;;;6.88;2.00;;;8.80;61.60;;;;;;5091652;28;20040;-62
2023/03/04 02:53:05;;;;;;;6.00;2.10;;;8.80;61.50;;;;;;5087454;28;20031;-62
2023/03/04 02:55:32;;;;;;;8.43;1.52;;;8.80;61.50;;;;;;5093797;28;20514;-62
2023/03/04 02:57:58;;;;;;;9.45;1.63;;;8.80;61.40;;;;;;5093489;28;20407;-62
2023/03/04 03:00:25;;;;;;;9.50;1.90;;;8.80;61.30;;;;;;5093074;28;20024;-61
2023/03/04 03:02:51;;;;;;;11.38;1.67;;;8.80;61.20;;;;;;5093774;28;20034;-62
2023/03/04 03:05:17;;;;;;;8.63;1.55;;;8.80;61.10;;;;;;5074022;28;20107;-62
2023/03/04 03:07:43;;;;;;;7.13;1.70;;;8.80;61.10;;;;;;5099502;28;20049;-63
2023/03/04 03:10:10;;;;;;;9.75;1.83;;;8.80;61.10;;;;;;5102627;28;20445;-62
2023/03/04 03:12:37;;;;;;;7.22;1.50;;;8.80;61.00;;;;;;5098111;28;20119;-62
2023/03/04 03:15:03;;;;;;;5.00;1.30;;;8.80;61.00;;;;;;5093611;28;20066;-62
2023/03/04 03:17:29;;;;;;;6.90;2.22;;;8.80;61.00;;;;;;5098554;28;20031;-62
2023/03/04 03:19:55;;;;;;;9.23;2.35;;;8.80;61.00;;;;;;5097681;28;20452;-62
2023/03/04 03:22:21;;;;;;;8.02;1.77;;;8.80;61.00;;;;;;5093906;28;20059;-62
2023/03/04 03:24:47;;;;;;;5.85;1.33;;;8.80;61.70;;;;;;5093831;28;20077;-62
2023/03/04 03:27:12;;;;;;;8.00;2.08;;;8.80;61.00;;;;;;5093695;28;20036;-62
2023/03/04 03:29:38;;;;;;;11.90;1.75;;;8.80;61.10;;;;;;5093549;28;20099;-62
2023/03/04 03:32:06;;;;;;;7.82;1.90;;;8.80;61.10;;;;;;5080539;28;20101;-61
2023/03/04 03:34:32;;;;;;;9.93;2.10;;;8.80;61.20;;;;;;5093232;28;20530;-62
2023/03/04 03:36:58;;;;;;;6.53;2.00;;;8.80;61.20;;;;;;5092146;28;20036;-62
2023/03/04 03:39:24;;;;;;;8.57;1.88;;;8.80;61.30;;;;;;5084354;28;20024;-62
2023/03/04 03:41:49;;;;;;;9.25;1.40;;;8.80;61.30;;;;;;5088330;28;20150;-62
2023/03/04 03:44:15;;;;;;;10.20;2.08;;;8.90;61.40;;;;;;5085439;28;20047;-62
2023/03/04 03:46:41;;;;;;;8.18;1.60;;;8.80;61.40;;;;;;5094077;28;20024;-62
2023/03/04 03:49:06;;;;;;;8.32;1.95;;;8.80;61.40;;;;;;5093320;28;20059;-62
2023/03/04 03:51:33;;;;;;;9.95;1.83;;;8.80;61.40;;;;;;5093959;28;20104;-62
2023/03/04 03:53:59;;;;;;;10.38;1.50;;;8.80;61.50;;;;;;5093596;28;20023;-62
2023/03/04 03:56:25;;;;;;;9.98;2.28;;;8.70;61.50;;;;;;5092445;28;20020;-62
2023/03/04 03:58:50;;;;;;;6.95;1.70;;;8.80;61.70;;;;;;5092888;28;20065;-62
2023/03/04 04:01:16;;;;;;;7.82;1.73;;;8.80;61.80;;;;;;5092225;28;20039;-62
2023/03/04 04:03:42;;;;;;;11.13;1.70;;;8.80;61.90;;;;;;5095378;28;20036;-61
2023/03/04 04:06:08;;;;;;;7.90;1.30;;;8.80;62.00;;;;;;5093520;28;20028;-62
2023/03/04 04:08:33;;;;;;;8.82;2.15;;;8.70;62.00;;;;;;5094423;28;20093;-62
2023/03/04 04:10:59;;;;;;;7.70;1.70;;;8.70;62.00;;;;;;5091958;28;20111;-62
2023/03/04 04:13:25;;;;;;;7.97;1.67;;;8.70;62.10;;;;;;5094197;28;20019;-62
2023/03/04 04:15:52;;;;;;;6.32;1.48;;;8.70;62.10;;;;;;5093871;28;20096;-62
2023/03/04 04:18:18;;;;;;;9.20;2.00;;;8.70;62.10;;;;;;5094600;28;20036;-62
2023/03/04 04:20:44;;;;;;;5.78;1.23;;;8.70;62.10;;;;;;5090331;28;20028;-62
2023/03/04 04:23:10;;;;;;;8.23;1.65;;;8.70;62.20;;;;;;5100111;28;20035;-62
2023/03/04 04:25:36;;;;;;;8.23;1.52;;;8.70;62.30;;;;;;5094477;28;20441;-62
2023/03/04 04:28:02;;;;;;;4.93;1.52;;;8.70;62.30;;;;;;5092910;28;20039;-62
2023/03/04 04:30:28;;;;;;;12.30;2.60;;;8.70;62.40;;;;;;5093344;28;20016;-62
2023/03/04 04:32:53;;;;;;;6.18;1.55;;;8.70;62.40;;;;;;5095561;28;20345;-61
2023/03/04 04:35:19;;;;;;;7.80;1.42;;;8.70;62.40;;;;;;5105848;28;20022;-61
2023/03/04 04:37:45;;;;;;;7.13;1.63;;;8.70;62.40;;;;;;5095469;28;20453;-62
2023/03/04 04:40:11;;;;;;;7.75;1.90;;;8.70;63.10;;;;;;5091697;28;20600;-62
2023/03/04 04:42:37;;;;;;;13.00;1.98;;;8.70;62.50;;;;;;5096548;28;20028;-62
2023/03/04 04:45:03;;;;;;;10.23;1.80;;;8.70;62.60;;;;;;5096478;28;20476;-62
2023/03/04 04:47:29;;;;;;;12.18;1.95;;;8.70;62.70;;;;;;5097495;28;20036;-62
2023/03/04 04:49:55;;;;;;;6.38;1.65;;;8.70;62.70;;;;;;5100275;28;20047;-62
2023/03/04 04:52:20;;;;;;;5.57;1.15;;;8.70;62.80;;;;;;5098269;28;20028;-62
2023/03/04 04:54:46;;;;;;;8.43;1.83;;;8.70;62.80;;;;;;5103318;28;20442;-62
2023/03/04 04:57:12;;;;;;;7.15;1.30;;;8.70;62.80;;;;;;5097438;28;20020;-62
2023/03/04 04:59:38;;;;;;;8.95;2.08;;;8.70;62.90;;;;;;5096315;28;20039;-62
2023/03/04 05:02:03;;;;;;;9.48;2.00;;;8.70;62.90;;;;;;5093400;28;20035;-61
2023/03/04 05:04:29;;;;;;;5.82;1.55;;;8.70;63.00;;;;;;5094146;28;20039;-62
2023/03/04 05:06:55;;;;;;;9.18;1.77;;;8.70;63.10;;;;;;5092566;28;20079;-62
2023/03/04 05:09:21;;;;;;;6.53;1.88;;;8.70;63.10;;;;;;5096006;28;20034;-62
2023/03/04 05:11:48;;;;;;;5.70;1.17;;;8.70;63.20;;;;;;5084954;28;20020;-62
2023/03/04 05:14:14;;;;;;;7.95;1.40;;;8.70;63.30;;;;;;5084520;28;20038;-61
2023/03/04 05:16:39;;;;;;;6.28;1.60;;;8.60;64.00;;;;;;5082545;28;20107;-62
2023/03/04 05:19:06;;;;;;;7.70;1.50;;;8.60;63.50;;;;;;5092483;28;20115;-61
2023/03/04 05:21:31;;;;;;;7.35;1.45;;;8.60;63.60;;;;;;5079347;28;20100;-62
2023/03/04 05:23:57;;;;;;;7.60;1.48;;;8.60;63.80;;;;;;5082024;28;20102;-61
2023/03/04 05:26:23;;;;;;;7.63;1.77;;;8.60;63.90;;;;;;5078764;28;20084;-61
2023/03/04 05:28:48;;;;;;;6.07;1.83;;;8.60;64.00;;;;;;5082258;28;20059;-62
2023/03/04 05:31:14;;;;;;;8.05;1.98;;;8.60;64.10;;;;;;5079409;28;20147;-62
2023/03/04 05:33:40;;;;;;;10.30;1.70;;;8.60;64.20;;;;;;5082953;28;20031;-61
2023/03/04 05:36:07;;;;;;;7.90;1.92;;;8.60;64.20;;;;;;5083371;28;20024;-62
2023/03/04 05:38:33;;;;;;;5.72;1.58;;;8.60;64.30;;;;;;5081859;28;20117;-61
2023/03/04 05:41:02;;;;;;;9.65;2.30;;;8.60;64.40;;;;;;5084512;28;20107;-62
2023/03/04 05:43:28;;;;;;;10.32;2.30;;;8.60;64.50;;;;;;5084200;28;20035;-61
2023/03/04 05:45:54;;;;;;;9.10;2.63;;;8.60;64.50;;;;;;5078549;28;20035;-61
2023/03/04 05:48:20;;;;;;;11.57;2.28;;;8.60;64.50;;;;;;5078829;28;20029;-62
2023/03/04 05:50:46;;;;;;;6.90;1.75;;;8.60;64.50;;;;;;5086897;28;20439;-62
2023/03/04 05:53:12;;;;;;;5.93;1.63;;;8.60;64.50;;;;;;5083294;28;20025;-62
2023/03/04 05:55:38;;;;;;;5.07;1.75;;;8.60;64.60;;;;;;5083645;28;20054;-62
2023/03/04 05:58:04;;;;;;;6.45;1.52;;;8.60;64.60;;;;;;5089170;28;20114;-62
2023/03/04 06:00:29;;;;;;;7.85;1.60;;;8.60;64.70;;;;;;5098771;28;20032;-61
2023/03/04 06:02:55;;;;;;;4.97;1.13;;;8.60;64.70;;;;;;5095078;28;20089;-62
2023/03/04 06:05:21;;;;;;;7.00;1.27;;;8.50;64.70;;;;;;5095731;28;20020;-61
2023/03/04 06:07:47;;;;;;;7.30;1.90;;;8.50;64.70;;;;;;5096156;28;20466;-61
2023/03/04 06:10:18;;;;;;;7.68;1.35;;;8.60;64.80;;;;;;5092319;28;20448;-61
2023/03/04 06:12:44;;;;;;;9.13;1.77;;;8.60;64.80;;;;;;5093400;28;20024;-61
2023/03/04 06:15:10;;;;;;;4.95;1.65;;;8.60;64.80;;;;;;5095332;28;20107;-62
2023/03/04 06:17:39;;;;;;;8.52;1.35;;;8.60;64.90;;;;;;5104730;28;20071;-61
2023/03/04 06:20:05;;;;;;;6.35;1.55;;;8.50;64.80;;;;;;5094379;28;20044;-61
2023/03/04 06:22:32;;;;;;;3.75;1.40;;;8.50;64.90;;;;;;5095541;28;20027;-62
2023/03/04 06:24:58;;;;;;;5.43;1.30;;;8.60;64.90;;;;;;5095730;28;20027;-62
2023/03/04 06:27:23;;;;;;;6.03;1.60;;;8.60;64.90;;;;;;5095458;28;20031;-62
2023/03/04 06:29:49;;;;;;;3.53;0.95;;;8.60;65.00;;;;;;5093193;28;20028;-62
2023/03/04 06:32:15;;;;;;;7.28;1.10;;;8.50;65.00;;;;;;5098640;28;20119;-62
2023/03/04 06:34:41;;;;;;;5.55;1.23;;;8.60;65.10;;;;;;5089599;28;20036;-62
2023/03/04 06:37:06;;;;;;;8.73;1.77;;;8.60;65.10;;;;;;5095852;28;20055;-62
2023/03/04 06:39:32;;;;;;;4.97;1.13;;;8.60;65.20;;;;;;5095929;28;20035;-62
2023/03/04 06:41:58;;;;;;;7.82;1.63;;;8.60;65.30;;;;;;5095651;28;20028;-62
2023/03/04 06:44:24;;;;;;;5.88;1.50;;;8.60;65.40;;;;;;5094396;28;20365;-62
2023/03/04 06:46:49;;;;;;;6.35;1.70;;;8.50;65.50;;;;;;5095366;28;20063;-62
2023/03/04 06:49:15;;;;;;;8.43;1.30;;;8.50;65.60;;;;;;5095563;28;20101;-62
2023/03/04 06:51:41;;;;;;;6.95;1.83;;;8.50;65.70;;;;;;5095498;28;20055;-62
2023/03/04 06:54:07;;;;;;;7.13;1.35;;;8.60;65.90;;;;;;5096369;28;20031;-62
2023/03/04 06:56:32;;;;;;;9.18;1.67;;;8.60;66.00;;;;;;5100625;28;20028;-62
2023/03/04 06:58:58;;;;;;;8.27;1.60;;;8.50;66.00;;;;;;5094168;28;20034;-62
2023/03/04 07:01:26;;;;;;;6.35;1.30;;;8.50;66.00;;;;;;5095623;28;20111;-62
2023/03/04 07:03:53;;;;;;;10.40;1.88;;;8.60;66.10;;;;;;5093954;28;20024;-62
2023/03/04 07:06:22;;;;;;;8.98;1.60;;;8.60;66.20;;;;;;5107331;28;20024;-62
2023/03/04 07:08:48;;;;;;;8.00;1.67;;;8.50;66.20;;;;;;5104763;28;20035;-62
2023/03/04 07:11:15;;;;;;;9.45;1.60;;;8.60;66.30;;;;;;5105474;28;20446;-62
2023/03/04 07:13:41;;;;;;;5.80;1.58;;;8.60;66.30;;;;;;5096201;28;20016;-62
2023/03/04 07:16:12;;;;;;;7.15;1.33;;;8.60;66.30;;;;;;5087821;28;20120;-62
2023/03/04 07:18:38;;;;;;;5.10;1.67;;;8.70;66.30;;;;;;5093938;28;20047;-62
2023/03/04 07:21:05;;;;;;;6.90;1.63;;;8.70;66.30;;;;;;5103364;28;20107;-62
2023/03/04 07:23:32;;;;;;;10.65;1.88;;;8.70;66.30;;;;;;5096527;28;20019;-62
2023/03/04 07:25:58;;;;;;;7.45;1.52;;;8.70;66.30;;;;;;5098024;28;20106;-62
2023/03/04 07:28:23;;;;;;;6.57;1.50;;;8.70;66.30;;;;;;5099172;28;20112;-62
2023/03/04 07:30:49;;;;;;;6.28;1.65;;;8.70;66.40;;;;;;5095305;28;20031;-62
2023/03/04 07:33:15;;;;;;;4.22;1.35;;;8.70;66.40;;;;;;5094534;28;20345;-63
2023/03/04 07:35:41;;;;;;;6.18;1.63;;;8.70;66.40;;;;;;5093772;28;20020;-62
2023/03/04 07:38:06;;;;;;;7.25;2.00;;;8.70;66.50;;;;;;5092836;28;20639;-62
2023/03/04 07:40:32;;;;;;;11.85;1.70;;;8.80;66.50;;;;;;5093751;28;20036;-63
2023/03/04 07:42:58;;;;;;;7.18;1.85;;;8.80;66.50;;;;;;5091604;28;20027;-63
2023/03/04 07:45:26;;;;;;;10.60;1.88;;;8.80;66.50;;;;;;5091679;28;20016;-63
2023/03/04 07:47:53;;;;;;;6.13;1.30;;;8.80;66.50;;;;;;5088812;28;20445;-64
2023/03/04 07:50:19;;;;;;;5.72;1.33;;;8.90;66.50;;;;;;5091041;28;20035;-64
2023/03/04 07:52:47;;;;;;;6.03;1.58;;;9.00;66.40;;;;;;5092975;28;20024;-63
2023/03/04 07:55:14;;;;;;;5.78;1.58;;;9.00;66.20;;;;;;5093698;28;20046;-64
2023/03/04 07:57:41;;;;;;;10.05;1.73;;;9.10;66.20;;;;;;5093382;28;20051;-63
2023/03/04 08:00:08;;;;;;;5.95;1.88;;;9.20;66.10;;;;;;5093803;28;20024;-64
2023/03/04 08:02:38;;;;;;;7.65;1.92;;;9.20;66.10;;;;;;5093973;28;20055;-64
2023/03/04 08:05:04;;;;;;;9.77;1.45;;;9.20;66.00;;;;;;5093654;28;20086;-64
2023/03/04 08:07:30;;;;;;;5.85;1.55;;;9.30;66.00;;;;;;5093779;28;20039;-64
2023/03/04 08:09:56;;;;;;;6.28;1.58;;;9.30;66.00;;;;;;5093377;28;20044;-64
2023/03/04 08:12:23;;;;;;;7.40;1.25;;;9.30;65.90;;;;;;5093240;28;20024;-63
2023/03/04 08:14:50;;;;;;;6.40;1.40;;;9.40;66.00;;;;;;5094073;28;20077;-64
2023/03/04 08:17:16;;;;;;;5.68;1.98;;;9.50;66.00;;;;;;5093764;28;20107;-64
2023/03/04 08:19:42;;;;;;;4.22;1.05;;;9.50;65.90;;;;;;5094108;28;20021;-64
2023/03/04 08:22:08;;;;;;;5.97;1.42;;;9.60;66.00;;;;;;5093386;28;20338;-63
2023/03/04 08:24:34;;;;;;;6.53;1.80;;;9.50;66.10;;;;;;5093319;28;20039;-64
2023/03/04 08:26:59;;;;;;;4.53;1.30;;;9.50;66.30;;;;;;5093642;28;20036;-64
2023/03/04 08:29:26;;;;;;;9.18;1.45;;;9.50;66.50;;;;;;5093873;28;20016;-64
2023/03/04 08:31:53;;;;;;;5.85;1.63;;;9.50;66.70;;;;;;5076083;28;20021;-64
2023/03/04 08:34:21;;;;;;;8.90;1.63;;;9.40;66.80;;;;;;5098512;28;20532;-64
2023/03/04 08:36:47;;;;;;;6.60;1.92;;;9.50;67.00;;;;;;5095695;28;20036;-64
2023/03/04 08:39:15;;;;;;;5.93;1.85;;;9.50;67.00;;;;;;5093053;28;20039;-64
2023/03/04 08:41:41;;;;;;;5.72;1.52;;;9.50;66.90;;;;;;5093069;28;20024;-64
2023/03/04 08:44:09;;;;;;;6.57;1.73;;;9.60;67.00;;;;;;5098126;28;20035;-63
2023/03/04 08:46:36;;;;;;;7.60;2.08;;;9.60;66.90;;;;;;5098189;28;20085;-63
2023/03/04 08:49:02;;;;;;;6.13;1.48;;;9.70;66.90;;;;;;5095650;28;20395;-63
2023/03/04 08:51:28;;;;;;;7.70;1.52;;;9.80;66.90;;;;;;5094387;28;20072;-63
2023/03/04 08:53:54;;;;;;;7.15;1.85;;;9.70;66.80;;;;;;5090633;28;20059;-64
2023/03/04 08:56:19;;;;;;;8.95;2.20;;;9.70;67.00;;;;;;5091341;28;20097;-64
2023/03/04 08:58:45;;;;;;;7.45;2.05;;;9.60;67.10;;;;;;5093283;28;20020;-64
2023/03/04 09:01:13;;;;;;;7.63;1.58;;;9.60;67.20;;;;;;5091859;28;20047;-64
2023/03/04 09:03:39;;;;;;;4.82;1.45;;;9.60;67.40;;;;;;5090813;28;20028;-64
2023/03/04 09:06:06;;;;;;;4.43;1.38;;;9.50;67.60;;;;;;5101793;28;20024;-63
2023/03/04 09:08:32;;;;;;;6.40;1.42;;;9.50;68.00;;;;;;5090932;28;20024;-63
2023/03/04 09:10:59;;;;;;;3.90;1.50;;;9.50;68.30;;;;;;5093019;28;20452;-63
2023/03/04 09:13:28;;;;;;;4.65;1.30;;;9.50;68.70;;;;;;5090536;28;20032;-63
2023/03/04 09:15:53;;;;;;;4.43;1.48;;;9.40;69.00;;;;;;5095018;28;20348;-63
2023/03/04 09:18:21;;;;;;;3.97;1.30;;;9.40;69.10;;;;;;5100442;28;20043;-63
2023/03/04 09:20:47;;;;;;;6.90;1.88;;;9.50;69.50;;;;;;5099004;28;20031;-63
2023/03/04 09:23:13;;;;;;;3.60;1.40;;;9.50;69.70;;;;;;5096197;28;20030;-63
2023/03/04 09:25:40;;;;;;;4.68;1.45;;;9.50;70.00;;;;;;5112548;28;20039;-63
2023/03/04 09:28:06;;;;;;;4.95;1.52;;;9.50;70.30;;;;;;5099178;28;20036;-64
2023/03/04 09:30:34;;;;;;;6.00;1.38;;;9.50;70.50;;;;;;5089010;28;20032;-63
2023/03/04 09:33:00;;;;;;;5.70;1.25;;;9.40;70.60;;;;;;5096129;28;20058;-63
2023/03/04 09:35:26;;;;;;;4.97;1.63;;;9.50;70.70;;;;;;5096104;28;20027;-63
2023/03/04 09:37:53;;;;;;;4.13;1.20;;;9.60;70.80;;;;;;5096549;28;20036;-62
2023/03/04 09:40:22;;;;;;;5.57;1.48;;;9.60;70.80;;;;;;5097470;28;20027;-63
2023/03/04 09:42:56;;;;;;;6.78;1.55;;;9.60;71.00;;;;;;5097202;28;20050;-63
2023/03/04 09:45:26;;;;;;;5.10;1.50;;;9.60;71.20;;;;;;5094870;28;20477;-63
2023/03/04 09:47:54;;;;;;;5.03;1.90;;;9.60;71.30;;;;;;5095805;28;20088;-63
2023/03/04 09:50:21;;;;;;;5.00;1.90;;;9.70;71.50;;;;;;5078762;28;20016;-63
2023/03/04 09:53:19;;;;;;;4.00;1.52;;;9.70;71.50;;;;;;5097278;28;20107;-63
2023/03/04 09:55:49;;;;;;;6.57;1.98;;;9.80;71.70;;;;;;5074401;28;20040;-62
2023/03/04 09:58:51;;;;;;;5.78;1.42;;;9.80;71.50;;;;;;5092055;28;20052;-63
2023/03/04 10:01:52;;;;;;;4.93;1.25;;;9.90;71.60;;;;;;5086212;28;20445;-63
2023/03/04 10:04:41;;;;;;;2.55;1.02;;;9.90;71.60;;;;;;5089929;28;20101;-63
2023/03/04 10:07:16;;;;;;;2.65;1.23;;;10.00;71.50;;;;;;5096685;28;20031;-63
2023/03/04 10:09:41;;;;;;;3.20;1.30;;;10.10;71.30;;;;;;5095596;28;20024;-63
2023/03/04 10:12:13;;;;;;;4.20;1.60;;;10.20;71.30;;;;;;5096565;28;20101;-63
2023/03/04 10:14:57;;;;;;;3.95;1.75;;;10.30;71.20;;;;;;5096377;28;20021;-63
2023/03/04 10:17:44;;;;;;;4.35;1.20;;;10.30;71.10;;;;;;5096722;28;20040;-63
2023/03/04 10:20:37;;;;;;;4.47;1.35;;;10.40;71.10;;;;;;5094688;28;20164;-63
2023/03/04 10:23:21;;;;;;;7.88;1.55;;;10.50;71.00;;;;;;5092890;28;20043;-63
2023/03/04 10:25:52;;;;;;;4.35;1.45;;;10.50;71.00;;;;;;5095415;28;20167;-63
2023/03/04 10:28:24;;;;;;;4.20;1.42;;;10.40;70.90;;;;;;5095154;28;20110;-63
2023/03/04 10:30:56;;;;;;;2.63;1.17;;;10.40;71.00;;;;;;5085412;28;20095;-63
2023/03/04 10:33:26;;;;;;;3.95;1.30;;;10.40;71.10;;;;;;5087405;28;20028;-63
2023/03/04 10:36:05;;;;;;;2.92;1.08;;;10.30;71.10;;;;;;5095519;28;20464;-63
2023/03/04 10:38:35;;;;;;;5.22;1.20;;;10.20;71.20;;;;;;5095350;28;20337;-63
2023/03/04 10:41:13;;;;;;;3.75;1.27;;;10.10;71.40;;;;;;5095890;28;20032;-63
2023/03/04 10:43:39;;;;;;;3.58;1.40;;;10.10;71.60;;;;;;5095247;28;20090;-62
2023/03/04 10:46:05;;;;;;;4.07;1.35;;;10.00;71.80;;;;;;5095938;28;20388;-63
2023/03/04 10:48:31;;;;;;;4.35;1.40;;;10.00;72.00;;;;;;5095837;28;20032;-63
2023/03/04 10:51:30;;;;;;;3.30;1.02;;;10.00;72.10;;;;;;5094577;28;20453;-63
2023/03/04 10:54:09;;;;;;;6.05;1.25;;;10.00;72.20;;;;;;5078958;28;20096;-63
2023/03/04 10:56:51;;;;;;;2.72;1.05;;;10.10;72.20;;;;;;5096179;28;20020;-63
2023/03/04 10:59:35;;;;;;;;;;;10.10;72.10;;;;;;5096355;28;20090;-63
2023/03/04 11:02:14;;;;;;;2.88;0.90;;;10.10;71.80;;;;;;5096016;28;19996;-63
2023/03/04 11:04:40;;;;;;;3.53;1.10;;;10.10;71.70;;;;;;5094335;28;20055;-63
2023/03/04 11:07:10;;;;;;;3.22;1.10;;;10.20;71.60;;;;;;5094249;28;20382;-63
2023/03/04 11:09:38;;;;;;;2.60;1.10;;;10.20;71.60;;;;;;5095704;28;20020;-63
2023/03/04 11:12:11;;;;;;;2.05;1.08;;;10.20;71.60;;;;;;5095342;28;20035;-63
2023/03/04 11:14:50;;;;;;;3.50;1.27;;;10.20;71.70;;;;;;5095459;28;20116;-63
2023/03/04 11:17:20;;;;;;;3.58;1.15;;;10.30;71.80;;;;;;5090010;28;20399;-63
2023/03/04 11:19:53;;;;;;;3.20;1.10;;;10.30;71.60;;;;;;5093695;28;20070;-63
2023/03/04 11:22:21;;;;;;;2.78;0.90;;;10.40;71.50;;;;;;5089506;28;20506;-63
2023/03/04 11:25:00;;;;;;;1.95;0.88;;;10.50;71.50;;;;;;5094498;28;20036;-63
2023/03/04 11:27:31;;;;;;;2.60;1.00;;;10.50;71.40;;;;;;5094055;28;20035;-63
2023/03/04 11:30:16;;;;;;;5.03;1.20;;;10.60;71.10;;;;;;5090561;28;20037;-63
2023/03/04 11:32:45;;;;;;;3.38;0.90;;;10.70;70.80;;;;;;5087106;28;20027;-63
2023/03/04 11:35:22;;;;;;;2.88;0.85;;;10.80;70.70;;;;;;5093941;28;20073;-63
2023/03/04 11:38:20;;;;;;;4.13;0.77;;;10.90;70.40;;;;;;5080848;28;20388;-63
2023/03/04 11:40:53;;;;;;;2.75;0.90;;;11.10;70.10;;;;;;5084171;28;20138;-63
2023/03/04 11:43:28;;;;;;;3.13;0.88;;;11.20;69.80;;;;;;5094768;28;20044;-63
2023/03/04 11:46:20;;;;;;;1.55;0.75;;;11.20;69.70;;;;;;5094195;28;20043;-64
2023/03/04 11:49:11;;;;;;;2.42;0.90;;;11.10;69.60;;;;;;5080479;28;20153;-63
2023/03/04 11:52:03;;;;;;;1.40;0.83;;;11.10;69.50;;;;;;5093466;28;20157;-63
2023/03/04 11:55:02;;;;;;;2.85;0.95;;;11.00;69.40;;;;;;5076497;28;20028;-63
2023/03/04 11:57:43;;;;;;;1.48;0.75;;;11.00;69.40;;;;;;5093204;28;20398;-63
2023/03/04 12:00:38;;;;;;;2.83;0.82;;;10.90;69.40;;;;;;5093224;28;20348;-63
2023/03/04 12:03:22;;;;;;;2.95;1.00;;;10.80;69.50;;;;;;5094374;28;20047;-62
2023/03/04 12:06:10;;;;;;;1.98;1.00;;;10.80;69.70;;;;;;5094522;28;20112;-63
2023/03/04 12:09:10;;;;;;;2.47;0.93;;;10.70;70.00;;;;;;5093390;28;20028;-63
2023/03/04 12:11:55;;;;;;;1.88;0.90;;;10.70;70.40;;;;;;5093021;28;20124;-62
2023/03/04 12:14:53;;;;;;;3.35;1.00;;;10.70;70.70;;;;;;5085274;28;20028;-64
2023/03/04 12:17:53;;;;;;;4.38;1.45;;;10.70;71.00;;;;;;5089670;28;20036;-63
2023/03/04 12:20:25;;;;;;;4.53;1.10;;;10.70;71.30;;;;;;5080860;28;20036;-63
2023/03/04 12:23:01;;;;;;;2.40;1.08;;;10.70;71.40;;;;;;5093839;28;20111;-63
2023/03/04 12:25:29;;;;;;;3.05;1.20;;;10.90;71.50;;;;;;5094003;28;20123;-63
2023/03/04 12:28:15;;;;;;;3.03;1.08;;;11.00;71.40;;;;;;5094649;28;20082;-63
2023/03/04 12:31:04;;;;;;;3.33;1.52;;;11.10;71.50;;;;;;5095340;28;20080;-63
2023/03/04 12:33:52;;;;;;;2.30;1.05;;;11.10;71.30;;;;;;5108670;28;20028;-63
2023/03/04 12:36:45;;;;;;;2.97;1.08;;;11.10;71.30;;;;;;5093931;28;20036;-64
2023/03/04 12:39:31;;;;;;;3.10;1.10;;;11.10;71.40;;;;;;5088003;28;20052;-63
2023/03/04 12:42:07;;;;;;;4.15;1.52;;;11.00;71.50;;;;;;5092421;28;20032;-63
2023/03/04 12:44:51;;;;;;;3.50;1.02;;;10.90;71.70;;;;;;5094384;28;20457;-63
2023/03/04 12:47:45;;;;;;;2.03;0.70;;;10.70;71.70;;;;;;5094337;28;20032;-63
2023/03/04 12:50:16;;;;;;;4.95;1.33;;;10.60;71.60;;;;;;5092004;28;20024;-64
2023/03/04 12:52:59;;;;;;;6.78;1.30;;;10.60;71.60;;;;;;5096601;28;20040;-63
2023/03/04 12:55:36;;;;;;;3.58;1.10;;;10.50;71.60;;;;;;5098130;28;20016;-64
2023/03/04 12:58:04;;;;;;;5.10;1.13;;;10.40;71.50;;;;;;5098065;28;20047;-64
2023/03/04 13:00:41;;;;;;;4.07;1.00;;;10.40;71.50;;;;;;5090268;28;20028;-63
2023/03/04 13:03:26;;;;;;;4.60;1.45;;;10.40;71.50;;;;;;5097853;28;20044;-63
2023/03/04 13:06:08;;;;;;;4.88;1.33;;;10.30;71.30;;;;;;5097878;28;20378;-63